Alyeska Resort
Hourly Weather - Base Weather Site
ALY_BASE_HR 3/31/2015
CLICK TO VIEW GRAPH!!

        DATE  TIME   Air  BATT   H2o   H2o   Rel
                    Temp  Volt  Inch Since  Hum%
                      F   AVG   1HR  0600   AVG

   3/30/2015 24:00    32 14.02  0.00  0.01    94
   3/30/2015 23:00    33 13.98  0.00  0.01    94
   3/30/2015 22:00    36 13.93  0.00  0.01    87
   3/30/2015 21:00    38 13.88  0.00  0.01    83
   3/30/2015 20:00    40 13.83  0.00  0.01    84
   3/30/2015 19:00    43 13.78  0.00  0.01    74
   3/30/2015 18:00    43 13.76  0.00  0.01    73
   3/30/2015 17:00    44 13.76  0.00  0.01    75
   3/30/2015 16:00    43 13.80  0.00  0.01    81
   3/30/2015 15:00    42 13.82  0.00  0.01    84
   3/30/2015 14:00    42 13.84  0.01  0.01    82
   3/30/2015 13:00    40 13.88  0.00  0.00    85
   3/30/2015 12:00    39 13.91  0.00  0.00    91
   3/30/2015 11:00    38 13.94  0.00  0.00    90
   3/30/2015 10:00    36 13.97  0.00  0.00    95
   3/30/2015 09:00    34 13.99  0.00  0.00    96
   3/30/2015 08:00    34 14.00  0.00  0.00    96
   3/30/2015 07:00    34 13.99  0.00  0.00    96
   3/30/2015 06:00    34 13.98  0.00  0.72    96
   3/30/2015 05:00    34 13.97  0.01  0.72    95
   3/30/2015 04:00    35 13.96  0.03  0.71    95
   3/30/2015 03:00    35 13.96  0.01  0.68    95
   3/30/2015 02:00    35 13.96  0.02  0.67    95
   3/30/2015 01:00    35 13.95  0.02  0.65    95


CLICK TO VIEW GRAPH!!